Time;durP1;ratioP1;P1;durP2;ratioP2;P2;SDS_P1;SDS_P2;PMS_P1;PMS_P2;Temp;Humidity;BMP_temperature;BMP_pressure;BME280_temperature;BME280_humidity;BME280_pressure;Samples;Min_cycle;Max_cycle;Signal;HPM_P1;HPM_P2
2020/12/27 00:01:28;;;;;;;13.93;5.47;;;;;;;;;;4987434;28;20081;-80
2020/12/27 00:03:55;;;;;;;13.45;5.75;;;;;;;;;;4984825;28;20039;-79
2020/12/27 00:06:26;;;;;;;9.07;4.55;;;;;;;;;;4986737;28;20047;-78
2020/12/27 00:08:53;;;;;;;11.95;4.97;;;;;;;;;;4972442;28;20043;-77
2020/12/27 00:11:19;;;;;;;11.45;5.13;;;;;;;;;;4956074;28;20043;-81
2020/12/27 00:13:46;;;;;;;17.65;5.85;;;;;;;;;;4973128;28;20553;-78
2020/12/27 00:16:14;;;;;;;12.05;5.43;;;;;;;;;;4986732;28;20039;-78
2020/12/27 00:18:41;;;;;;;11.38;5.35;;;;;;;;;;4988156;28;20055;-78
2020/12/27 00:21:13;;;;;;;12.90;5.75;;;;;;;;;;4987647;28;20525;-79
2020/12/27 00:23:39;;;;;;;13.63;4.72;;;;;;;;;;4940186;28;20121;-77
2020/12/27 00:26:17;;;;;;;9.32;4.70;;;;;;;;;;4957742;28;20510;-79
2020/12/27 00:28:43;;;;;;;11.25;4.43;;;;;;;;;;4988019;28;20167;-82
2020/12/27 00:31:15;;;;;;;10.60;4.90;;;;;;;;;;4972945;28;20055;-76
2020/12/27 00:33:44;;;;;;;10.50;4.38;;;;;;;;;;4975513;28;20134;-78
2020/12/27 00:36:16;;;;;;;10.48;4.53;;;;;;;;;;4991222;28;20051;-79
2020/12/27 00:38:44;;;;;;;10.65;4.82;;;;;;;;;;4971826;28;20598;-80
2020/12/27 00:41:11;;;;;;;13.20;4.50;;;;;;;;;;4976592;28;20047;-79
2020/12/27 00:43:39;;;;;;;13.73;5.10;;;;;;;;;;4957813;28;20058;-78
2020/12/27 00:46:09;;;;;;;8.70;4.07;;;;;;;;;;4957847;28;20043;-80
2020/12/27 00:48:36;;;;;;;8.07;4.38;;;;;;;;;;4976430;28;20054;-79
2020/12/27 00:51:05;;;;;;;9.65;4.15;;;;;;;;;;4992449;28;20066;-81
2020/12/27 00:53:33;;;;;;;9.15;4.45;;;;;;;;;;4962970;28;20047;-80
2020/12/27 00:55:59;;;;;;;9.52;4.57;;;;;;;;;;4990473;28;20058;-79
2020/12/27 00:58:29;;;;;;;13.82;5.05;;;;;;;;;;4977331;28;20061;-78
2020/12/27 01:00:59;;;;;;;10.50;4.78;;;;;;;;;;5012290;23;20082;-79
2020/12/27 01:03:26;;;;;;;11.90;4.30;;;;;;;;;;4990405;28;20085;-79
2020/12/27 01:05:52;;;;;;;14.02;4.68;;;;;;;;;;4976457;28;20050;-80
2020/12/27 01:08:18;;;;;;;11.63;4.55;;;;;;;;;;4976606;28;20038;-79
2020/12/27 01:10:55;;;;;;;11.68;4.90;;;;;;;;;;4991477;28;20047;-80
2020/12/27 01:13:24;;;;;;;11.57;4.80;;;;;;;;;;4996559;28;20045;-79
2020/12/27 01:15:52;;;;;;;12.90;4.65;;;;;;;;;;4979099;28;20101;-79
2020/12/27 01:18:24;;;;;;;12.73;4.95;;;;;;;;;;4996902;28;20077;-79
2020/12/27 01:20:50;;;;;;;10.68;4.50;;;;;;;;;;4996427;28;20054;-79
2020/12/27 01:23:17;;;;;;;10.38;4.70;;;;;;;;;;4998074;28;20052;-79
2020/12/27 01:25:52;;;;;;;8.63;4.57;;;;;;;;;;4978917;28;20223;-79
2020/12/27 01:28:28;;;;;;;8.13;4.20;;;;;;;;;;4966623;28;20073;-79
2020/12/27 01:31:11;;;;;;;9.77;4.50;;;;;;;;;;5001111;28;20055;-79
2020/12/27 01:33:40;;;;;;;11.45;4.68;;;;;;;;;;4972471;28;20062;-80
2020/12/27 01:36:07;;;;;;;9.77;4.40;;;;;;;;;;4965073;28;20074;-79
2020/12/27 01:38:36;;;;;;;11.90;4.93;;;;;;;;;;4965157;28;20047;-79
2020/12/27 01:41:04;;;;;;;11.43;4.72;;;;;;;;;;4974197;28;20066;-79
2020/12/27 01:43:33;;;;;;;10.05;4.63;;;;;;;;;;4974062;28;20051;-79
2020/12/27 01:46:03;;;;;;;12.18;4.55;;;;;;;;;;4969428;28;20030;-81
2020/12/27 01:48:32;;;;;;;12.15;4.50;;;;;;;;;;4995745;28;20062;-79
2020/12/27 01:51:02;;;;;;;11.00;4.53;;;;;;;;;;4993533;28;20079;-78
2020/12/27 01:53:30;;;;;;;10.05;4.53;;;;;;;;;;4991170;28;20058;-78
2020/12/27 01:55:58;;;;;;;12.50;4.53;;;;;;;;;;4995173;28;20065;-79
2020/12/27 01:58:27;;;;;;;10.88;4.43;;;;;;;;;;5009894;28;20042;-79
2020/12/27 02:00:54;;;;;;;11.50;4.32;;;;;;;;;;4993868;28;20054;-80
2020/12/27 02:03:20;;;;;;;14.50;4.65;;;;;;;;;;4978037;28;20044;-79
2020/12/27 02:05:50;;;;;;;11.35;4.65;;;;;;;;;;4977879;28;20110;-79
2020/12/27 02:08:19;;;;;;;7.85;4.18;;;;;;;;;;4977513;28;20039;-79
2020/12/27 02:10:48;;;;;;;10.77;4.18;;;;;;;;;;4977775;28;20108;-79
2020/12/27 02:13:15;;;;;;;8.68;4.30;;;;;;;;;;4977314;28;20049;-80
2020/12/27 02:15:42;;;;;;;9.68;3.88;;;;;;;;;;5008894;28;20429;-79
2020/12/27 02:18:09;;;;;;;8.63;4.05;;;;;;;;;;4977917;28;20050;-79
2020/12/27 02:20:36;;;;;;;7.20;3.47;;;;;;;;;;5010962;28;20057;-79
2020/12/27 02:23:04;;;;;;;7.45;3.85;;;;;;;;;;5010439;28;20057;-80
2020/12/27 02:25:30;;;;;;;6.30;2.95;;;;;;;;;;5010310;28;20073;-80
2020/12/27 02:27:56;;;;;;;9.68;4.43;;;;;;;;;;4978964;28;20105;-79
2020/12/27 02:30:23;;;;;;;11.05;3.90;;;;;;;;;;5011093;28;20053;-79
2020/12/27 02:32:51;;;;;;;9.80;3.83;;;;;;;;;;4996892;28;20093;-80
2020/12/27 02:35:17;;;;;;;8.50;4.00;;;;;;;;;;4995777;28;20129;-80
2020/12/27 02:37:46;;;;;;;7.75;3.03;;;;;;;;;;4996294;28;20472;-80
2020/12/27 02:40:12;;;;;;;8.65;3.75;;;;;;;;;;4983504;28;20077;-80
2020/12/27 02:42:38;;;;;;;6.25;3.50;;;;;;;;;;4960023;28;20057;-79
2020/12/27 02:47:31;;;;;;;6.93;3.10;;;;;;;;;;4977090;28;20110;-79
2020/12/27 02:49:57;;;;;;;10.45;3.28;;;;;;;;;;4959233;28;20062;-80
2020/12/27 02:52:24;;;;;;;9.20;3.55;;;;;;;;;;4976676;28;20042;-80
2020/12/27 02:54:50;;;;;;;12.68;3.40;;;;;;;;;;4959261;28;20053;-80
2020/12/27 02:57:17;;;;;;;9.32;3.67;;;;;;;;;;4959525;28;20097;-80
2020/12/27 02:59:43;;;;;;;9.80;3.50;;;;;;;;;;4976698;28;20054;-80
2020/12/27 03:02:09;;;;;;;7.03;3.42;;;;;;;;;;4959146;28;20091;-80
2020/12/27 03:04:36;;;;;;;7.20;3.38;;;;;;;;;;4959514;28;20053;-80
2020/12/27 03:07:02;;;;;;;6.22;3.25;;;;;;;;;;4958873;28;20058;-80
2020/12/27 03:09:29;;;;;;;6.10;3.22;;;;;;;;;;4977383;28;20059;-80
2020/12/27 03:11:55;;;;;;;7.18;3.28;;;;;;;;;;4976124;28;20110;-79
2020/12/27 03:14:21;;;;;;;9.13;3.67;;;;;;;;;;4977937;28;20103;-79
2020/12/27 03:16:48;;;;;;;6.63;3.47;;;;;;;;;;4985153;28;20073;-80
2020/12/27 03:19:14;;;;;;;5.90;3.40;;;;;;;;;;4987377;28;20054;-80
2020/12/27 03:21:40;;;;;;;9.70;3.70;;;;;;;;;;4981136;28;20043;-80
2020/12/27 03:24:06;;;;;;;9.02;3.45;;;;;;;;;;4958943;28;20053;-80
2020/12/27 03:26:34;;;;;;;8.63;3.80;;;;;;;;;;4976517;28;20047;-80
2020/12/27 03:29:00;;;;;;;9.23;3.65;;;;;;;;;;4958966;28;20069;-79
2020/12/27 03:31:26;;;;;;;12.40;3.85;;;;;;;;;;4976524;28;20143;-80
2020/12/27 03:33:53;;;;;;;9.10;4.30;;;;;;;;;;4958413;28;20043;-80
2020/12/27 03:36:19;;;;;;;13.05;3.88;;;;;;;;;;4976189;28;20069;-79
2020/12/27 03:38:45;;;;;;;10.40;4.25;;;;;;;;;;4975902;28;20063;-81
2020/12/27 03:41:11;;;;;;;9.48;3.85;;;;;;;;;;4976256;28;20030;-80
2020/12/27 03:43:38;;;;;;;11.48;3.65;;;;;;;;;;4976508;28;20070;-79
2020/12/27 03:46:04;;;;;;;9.30;3.83;;;;;;;;;;4973503;28;20122;-79
2020/12/27 03:48:31;;;;;;;7.40;3.35;;;;;;;;;;4974797;28;20047;-79
2020/12/27 03:50:57;;;;;;;8.43;3.47;;;;;;;;;;4971947;28;20045;-79
2020/12/27 03:53:24;;;;;;;10.43;3.28;;;;;;;;;;4987629;28;20050;-78
2020/12/27 03:55:51;;;;;;;7.00;3.30;;;;;;;;;;4972981;28;20583;-81
2020/12/27 03:58:17;;;;;;;7.78;3.50;;;;;;;;;;4993036;28;20572;-80
2020/12/27 04:00:43;;;;;;;12.18;3.83;;;;;;;;;;4989721;28;20637;-78
2020/12/27 04:03:10;;;;;;;7.95;3.75;;;;;;;;;;4979471;28;20070;-79
2020/12/27 04:05:37;;;;;;;7.78;3.58;;;;;;;;;;4978657;28;20113;-79
2020/12/27 04:08:03;;;;;;;8.38;3.60;;;;;;;;;;4992472;28;20102;-79
2020/12/27 04:10:31;;;;;;;7.68;3.17;;;;;;;;;;4983110;28;20038;-78
2020/12/27 04:12:58;;;;;;;7.95;2.85;;;;;;;;;;5000539;28;20046;-78
2020/12/27 04:15:24;;;;;;;9.95;3.20;;;;;;;;;;4982382;28;20081;-79
2020/12/27 04:17:51;;;;;;;9.50;3.55;;;;;;;;;;4983913;28;20465;-78
2020/12/27 04:20:17;;;;;;;6.10;2.97;;;;;;;;;;4965282;28;20054;-80
2020/12/27 04:22:43;;;;;;;7.05;3.20;;;;;;;;;;4996967;28;20050;-79
2020/12/27 04:25:10;;;;;;;6.82;2.58;;;;;;;;;;4996664;28;20049;-80
2020/12/27 04:27:36;;;;;;;7.82;3.22;;;;;;;;;;4997031;28;20046;-80
2020/12/27 04:30:03;;;;;;;5.82;2.83;;;;;;;;;;4997883;28;20048;-80
2020/12/27 04:32:29;;;;;;;5.03;2.75;;;;;;;;;;4997752;28;20068;-80
2020/12/27 04:34:56;;;;;;;7.70;3.03;;;;;;;;;;4996923;28;20051;-79
2020/12/27 04:37:26;;;;;;;9.13;2.72;;;;;;;;;;4980383;28;20126;-80
2020/12/27 04:39:52;;;;;;;5.20;2.78;;;;;;;;;;4978990;28;20058;-80
2020/12/27 04:42:20;;;;;;;8.10;3.42;;;;;;;;;;4979382;28;20169;-78
2020/12/27 04:44:46;;;;;;;8.95;3.22;;;;;;;;;;4997132;28;20054;-80
2020/12/27 04:47:14;;;;;;;9.82;3.55;;;;;;;;;;4996683;28;20101;-79
2020/12/27 04:49:40;;;;;;;7.57;3.35;;;;;;;;;;4979449;28;20557;-80
2020/12/27 04:52:10;;;;;;;8.55;3.20;;;;;;;;;;4996917;28;20054;-80
2020/12/27 04:54:37;;;;;;;5.63;3.10;;;;;;;;;;5011587;28;20042;-79
2020/12/27 04:57:03;;;;;;;11.05;3.25;;;;;;;;;;5011338;28;20042;-80
2020/12/27 04:59:29;;;;;;;7.30;3.30;;;;;;;;;;4996962;28;20038;-80
2020/12/27 05:01:56;;;;;;;6.63;3.05;;;;;;;;;;4997061;28;20519;-80
2020/12/27 05:04:27;;;;;;;7.63;3.13;;;;;;;;;;4996092;28;20065;-79
2020/12/27 05:06:53;;;;;;;10.38;2.88;;;;;;;;;;4996375;28;20368;-79
2020/12/27 05:09:26;;;;;;;7.65;2.95;;;;;;;;;;4997125;28;20567;-79
2020/12/27 05:11:53;;;;;;;6.32;3.03;;;;;;;;;;5013160;28;20060;-79
2020/12/27 05:14:23;;;;;;;9.05;3.35;;;;;;;;;;4998030;28;20154;-79
2020/12/27 05:16:54;;;;;;;9.23;3.63;;;;;;;;;;4969717;28;20101;-79
2020/12/27 05:19:23;;;;;;;8.35;3.30;;;;;;;;;;4990386;28;20057;-79
2020/12/27 05:21:50;;;;;;;7.70;3.53;;;;;;;;;;4973805;28;20039;-78
2020/12/27 05:24:18;;;;;;;6.05;2.97;;;;;;;;;;4974541;28;20563;-81
2020/12/27 05:26:46;;;;;;;7.57;3.40;;;;;;;;;;4974576;28;20077;-78
2020/12/27 05:29:28;;;;;;;7.63;2.95;;;;;;;;;;4975674;28;20053;-78
2020/12/27 05:31:54;;;;;;;7.03;2.97;;;;;;;;;;4958768;28;20050;-80
2020/12/27 05:34:21;;;;;;;7.53;3.63;;;;;;;;;;4977322;28;20047;-78
2020/12/27 05:36:48;;;;;;;6.03;2.83;;;;;;;;;;4990716;28;20118;-78
2020/12/27 05:39:15;;;;;;;7.53;3.25;;;;;;;;;;4975487;28;20513;-79
2020/12/27 05:41:41;;;;;;;10.38;3.55;;;;;;;;;;4974844;28;20038;-78
2020/12/27 05:44:08;;;;;;;7.63;3.40;;;;;;;;;;4979598;28;20047;-80
2020/12/27 05:46:35;;;;;;;8.85;3.55;;;;;;;;;;4979621;28;20062;-80
2020/12/27 05:49:02;;;;;;;6.55;3.22;;;;;;;;;;4977186;28;20134;-80
2020/12/27 05:51:33;;;;;;;6.28;3.20;;;;;;;;;;4981603;28;20142;-78
2020/12/27 05:54:02;;;;;;;7.90;3.22;;;;;;;;;;4963522;28;20043;-79
2020/12/27 05:56:29;;;;;;;9.73;3.00;;;;;;;;;;4980769;28;20069;-79
2020/12/27 05:58:58;;;;;;;13.25;3.00;;;;;;;;;;4996960;28;20091;-80
2020/12/27 06:01:25;;;;;;;5.28;3.10;;;;;;;;;;4980691;28;20062;-80
2020/12/27 06:03:57;;;;;;;6.70;3.08;;;;;;;;;;4982811;28;20082;-80
2020/12/27 06:06:43;;;;;;;5.95;2.83;;;;;;;;;;4984409;28;20050;-79
2020/12/27 06:09:21;;;;;;;5.78;2.88;;;;;;;;;;4982518;28;20042;-80
2020/12/27 06:12:01;;;;;;;8.63;3.03;;;;;;;;;;4980210;28;20106;-78
2020/12/27 06:14:35;;;;;;;8.02;2.88;;;;;;;;;;4980820;28;20081;-79
2020/12/27 06:17:14;;;;;;;6.03;2.97;;;;;;;;;;4979690;28;20117;-80
2020/12/27 06:19:55;;;;;;;5.78;3.03;;;;;;;;;;4979586;28;20125;-80
2020/12/27 06:22:31;;;;;;;5.38;2.50;;;;;;;;;;4977365;28;20049;-80
2020/12/27 06:24:59;;;;;;;6.72;2.67;;;;;;;;;;4976760;28;20050;-79
2020/12/27 06:27:27;;;;;;;6.85;2.63;;;;;;;;;;4974864;28;20058;-79
2020/12/27 06:30:15;;;;;;;7.22;2.72;;;;;;;;;;4990563;28;20295;-78
2020/12/27 06:32:43;;;;;;;5.65;2.80;;;;;;;;;;4977337;28;20119;-79
2020/12/27 06:35:10;;;;;;;7.30;2.75;;;;;;;;;;4977855;28;20623;-81
2020/12/27 06:37:38;;;;;;;6.35;2.83;;;;;;;;;;4972708;28;20667;-79
2020/12/27 06:40:04;;;;;;;6.22;2.70;;;;;;;;;;4995401;28;20057;-80
2020/12/27 06:42:30;;;;;;;7.18;2.63;;;;;;;;;;5010784;28;20073;-80
2020/12/27 06:44:57;;;;;;;11.77;3.00;;;;;;;;;;4976120;28;20053;-79
2020/12/27 06:47:42;;;;;;;6.28;2.80;;;;;;;;;;4996286;28;20102;-80
2020/12/27 06:50:13;;;;;;;6.28;2.78;;;;;;;;;;4999674;28;20038;-78
2020/12/27 06:52:40;;;;;;;6.22;2.85;;;;;;;;;;4992690;28;20134;-80
2020/12/27 06:55:06;;;;;;;10.05;3.60;;;;;;;;;;4993540;28;20042;-80
2020/12/27 06:57:48;;;;;;;6.68;3.00;;;;;;;;;;4994011;28;20046;-80
2020/12/27 07:00:24;;;;;;;6.00;3.00;;;;;;;;;;4993361;28;20047;-79
2020/12/27 07:08:10;;;;;;;6.38;3.00;;;;;;;;;;3058559;23;20133;-86
2020/12/27 07:10:39;;;;;;;6.68;3.03;;;;;;;;;;4991271;28;20589;-86
2020/12/27 07:13:13;;;;;;;9.20;3.10;;;;;;;;;;4979995;28;20489;-85
2020/12/27 07:15:47;;;;;;;5.75;2.65;;;;;;;;;;4998275;28;20069;-84
2020/12/27 07:18:18;;;;;;;6.30;2.78;;;;;;;;;;4998983;28;20050;-84
2020/12/27 07:20:48;;;;;;;5.28;2.50;;;;;;;;;;4989152;28;20054;-83
2020/12/27 07:23:19;;;;;;;5.53;2.80;;;;;;;;;;4993483;28;20418;-81
2020/12/27 07:25:47;;;;;;;5.13;2.40;;;;;;;;;;4976257;28;20133;-83
2020/12/27 07:28:14;;;;;;;9.82;3.72;;;;;;;;;;4994044;28;20049;-83
2020/12/27 07:30:40;;;;;;;6.13;3.20;;;;;;;;;;5000883;28;20046;-81
2020/12/27 07:33:09;;;;;;;7.25;3.13;;;;;;;;;;4999273;28;20398;-83
2020/12/27 07:35:35;;;;;;;7.00;2.72;;;;;;;;;;4994720;28;20401;-85
2020/12/27 07:38:02;;;;;;;7.95;2.85;;;;;;;;;;4996345;28;20042;-84
2020/12/27 07:40:32;;;;;;;7.60;3.00;;;;;;;;;;4978273;28;20058;-81
2020/12/27 07:42:59;;;;;;;6.03;2.47;;;;;;;;;;5007422;28;20045;-85
2020/12/27 07:45:25;;;;;;;8.15;2.35;;;;;;;;;;4970851;28;20045;-84
2020/12/27 07:47:51;;;;;;;7.03;2.88;;;;;;;;;;5007693;28;20034;-85
2020/12/27 07:50:18;;;;;;;7.03;2.72;;;;;;;;;;5004989;28;20110;-84
2020/12/27 07:52:48;;;;;;;6.50;3.28;;;;;;;;;;4986204;28;20452;-85
2020/12/27 07:55:21;;;;;;;11.50;3.00;;;;;;;;;;5003232;28;20546;-83
2020/12/27 07:57:47;;;;;;;6.82;3.00;;;;;;;;;;4985327;28;20042;-85
2020/12/27 08:00:14;;;;;;;7.47;2.80;;;;;;;;;;5004522;28;20042;-85
2020/12/27 08:02:43;;;;;;;6.38;2.72;;;;;;;;;;4985390;28;20065;-85
2020/12/27 08:05:11;;;;;;;7.07;2.90;;;;;;;;;;5005102;28;20719;-84
2020/12/27 08:07:38;;;;;;;8.70;2.88;;;;;;;;;;5000940;28;20044;-84
2020/12/27 08:10:22;;;;;;;5.47;2.72;;;;;;;;;;5000954;28;20041;-82
2020/12/27 08:12:52;;;;;;;7.10;2.72;;;;;;;;;;4977883;28;20046;-84
2020/12/27 08:15:18;;;;;;;7.25;2.65;;;;;;;;;;4957647;28;20383;-84
2020/12/27 08:18:06;;;;;;;10.77;3.40;;;;;;;;;;4977746;28;20043;-83
2020/12/27 08:20:42;;;;;;;7.70;3.00;;;;;;;;;;4979702;28;20522;-85
2020/12/27 08:23:09;;;;;;;5.97;2.80;;;;;;;;;;4961891;28;20094;-84
2020/12/27 08:25:37;;;;;;;5.68;2.40;;;;;;;;;;4978895;28;20046;-84
2020/12/27 08:28:05;;;;;;;6.50;2.75;;;;;;;;;;4977281;28;20047;-84
2020/12/27 08:30:31;;;;;;;5.18;2.38;;;;;;;;;;4976980;28;20049;-81
2020/12/27 08:33:17;;;;;;;6.03;2.63;;;;;;;;;;4981528;28;20142;-85
2020/12/27 08:35:45;;;;;;;5.68;2.78;;;;;;;;;;4979362;28;20118;-83
2020/12/27 08:38:15;;;;;;;5.65;2.60;;;;;;;;;;4975090;28;20043;-84
2020/12/27 08:40:44;;;;;;;6.68;2.90;;;;;;;;;;4974971;28;20047;-84
2020/12/27 08:43:16;;;;;;;6.60;2.78;;;;;;;;;;4957465;28;20050;-83
2020/12/27 08:45:43;;;;;;;5.70;2.40;;;;;;;;;;4975640;28;20039;-84
2020/12/27 08:48:19;;;;;;;5.32;2.50;;;;;;;;;;4983588;28;20046;-82
2020/12/27 08:50:47;;;;;;;4.75;2.50;;;;;;;;;;4999422;28;20050;-83
2020/12/27 08:53:13;;;;;;;6.43;2.72;;;;;;;;;;5006954;28;20065;-85
2020/12/27 08:55:40;;;;;;;6.32;3.00;;;;;;;;;;5009261;28;20673;-83
2020/12/27 08:58:20;;;;;;;5.65;2.95;;;;;;;;;;5007160;28;20038;-83
2020/12/27 09:00:48;;;;;;;7.32;3.15;;;;;;;;;;5006550;28;20042;-79
2020/12/27 09:03:14;;;;;;;6.30;2.88;;;;;;;;;;5007391;28;20046;-81
2020/12/27 09:05:55;;;;;;;6.65;3.33;;;;;;;;;;5013503;28;20105;-82
2020/12/27 09:08:38;;;;;;;13.07;4.05;;;;;;;;;;4972425;28;20048;-83
2020/12/27 09:15:22;;;;;;;10.27;4.28;;;;;;;;;;4931363;29;20051;-84
2020/12/27 09:18:32;;;;;;;5.30;2.33;;;;;;;;;;4867964;29;20047;-83
2020/12/27 09:21:13;;;;;;;4.30;2.20;;;;;;;;;;4928631;29;20048;-85
2020/12/27 09:23:40;;;;;;;4.68;2.00;;;;;;;;;;4964838;28;20039;-82
2020/12/27 09:26:10;;;;;;;6.32;2.33;;;;;;;;;;4944370;28;20564;-82
2020/12/27 09:28:37;;;;;;;3.38;1.80;;;;;;;;;;4942110;29;20323;-81
2020/12/27 09:31:04;;;;;;;5.03;2.10;;;;;;;;;;4942478;29;20043;-81
2020/12/27 09:33:35;;;;;;;4.05;2.00;;;;;;;;;;4945900;29;20125;-80
2020/12/27 09:36:03;;;;;;;3.88;2.10;;;;;;;;;;4935533;29;20055;-82
2020/12/27 09:38:33;;;;;;;6.00;2.17;;;;;;;;;;4934753;29;20056;-82
2020/12/27 09:41:02;;;;;;;2.75;1.70;;;;;;;;;;4935778;29;20397;-82
2020/12/27 09:43:28;;;;;;;6.30;3.03;;;;;;;;;;4934308;29;20047;-82
2020/12/27 09:45:55;;;;;;;4.85;2.17;;;;;;;;;;4983373;28;20074;-82
2020/12/27 09:48:29;;;;;;;4.35;1.85;;;;;;;;;;4998774;28;20393;-83
2020/12/27 09:50:55;;;;;;;5.22;2.08;;;;;;;;;;5001596;28;20057;-82
2020/12/27 09:53:21;;;;;;;4.70;1.80;;;;;;;;;;4995989;28;20039;-81
2020/12/27 09:55:47;;;;;;;5.47;2.10;;;;;;;;;;4985450;28;20052;-82
2020/12/27 09:58:14;;;;;;;6.00;2.53;;;;;;;;;;4997769;28;20057;-80
2020/12/27 10:00:40;;;;;;;4.05;1.85;;;;;;;;;;4997659;28;20046;-80
2020/12/27 10:03:28;;;;;;;8.07;3.47;;;;;;;;;;4981931;28;20050;-82
2020/12/27 10:05:55;;;;;;;4.03;1.73;;;;;;;;;;4982724;28;20062;-83
2020/12/27 10:08:21;;;;;;;4.03;1.75;;;;;;;;;;4982356;28;20047;-83
2020/12/27 10:10:53;;;;;;;7.07;2.30;;;;;;;;;;4963036;28;20042;-87
2020/12/27 10:13:19;;;;;;;3.75;2.00;;;;;;;;;;4959036;28;20133;-80
2020/12/27 10:15:45;;;;;;;3.85;2.08;;;;;;;;;;4957705;28;20050;-81
2020/12/27 10:18:12;;;;;;;3.90;2.05;;;;;;;;;;4975264;28;20064;-81
2020/12/27 10:20:38;;;;;;;3.50;1.60;;;;;;;;;;4975116;28;20062;-81
2020/12/27 10:23:04;;;;;;;3.90;1.65;;;;;;;;;;4977677;28;20047;-84
2020/12/27 10:25:30;;;;;;;4.38;1.85;;;;;;;;;;4959217;28;20042;-85
2020/12/27 10:27:56;;;;;;;3.38;1.50;;;;;;;;;;4960019;28;20039;-85
2020/12/27 10:30:23;;;;;;;4.72;2.00;;;;;;;;;;4944613;28;20050;-86
2020/12/27 10:33:00;;;;;;;2.80;1.40;;;;;;;;;;4999924;28;20042;-86
2020/12/27 10:35:26;;;;;;;3.28;1.40;;;;;;;;;;5008661;28;20069;-83
2020/12/27 10:37:54;;;;;;;3.17;1.55;;;;;;;;;;5000377;28;20101;-83
2020/12/27 10:40:20;;;;;;;2.75;1.55;;;;;;;;;;4998323;28;20042;-86
2020/12/27 10:42:47;;;;;;;2.60;1.55;;;;;;;;;;4999840;28;20133;-83
2020/12/27 10:45:16;;;;;;;4.72;1.60;;;;;;;;;;4995952;28;20042;-87
2020/12/27 10:47:42;;;;;;;3.45;1.30;;;;;;;;;;4996783;28;20065;-85
2020/12/27 10:50:10;;;;;;;3.33;1.42;;;;;;;;;;4983991;28;20049;-86
2020/12/27 10:52:36;;;;;;;2.92;1.50;;;;;;;;;;5006996;28;20102;-85
2020/12/27 10:55:03;;;;;;;2.58;1.45;;;;;;;;;;4979626;28;20050;-85
2020/12/27 10:57:39;;;;;;;;;;;;;;;;;;;;;
2020/12/27 11:00:20;;;;;;;3.33;1.45;;;;;;;;;;4979725;28;20050;-84
2020/12/27 11:02:46;;;;;;;2.80;1.40;;;;;;;;;;4970623;28;20077;-85
2020/12/27 11:05:35;;;;;;;3.38;1.50;;;;;;;;;;4993342;28;20529;-86
2020/12/27 11:08:04;;;;;;;3.90;1.50;;;;;;;;;;4980849;28;20070;-82
2020/12/27 11:10:42;;;;;;;3.30;1.45;;;;;;;;;;4996422;28;20038;-85
2020/12/27 11:13:08;;;;;;;2.30;1.23;;;;;;;;;;4998973;28;20530;-84
2020/12/27 11:15:35;;;;;;;2.95;1.30;;;;;;;;;;4995704;28;20068;-85
2020/12/27 11:18:01;;;;;;;2.15;1.17;;;;;;;;;;4993344;28;20047;-86
2020/12/27 11:20:27;;;;;;;2.70;1.20;;;;;;;;;;4996581;28;20109;-86
2020/12/27 11:22:55;;;;;;;2.75;1.30;;;;;;;;;;5001617;28;20050;-85
2020/12/27 11:25:23;;;;;;;3.85;1.45;;;;;;;;;;4999916;28;20042;-85
2020/12/27 11:27:50;;;;;;;2.67;1.20;;;;;;;;;;4969412;28;20043;-86
2020/12/27 11:30:21;;;;;;;4.65;2.45;;;;;;;;;;4979721;28;20234;-87
2020/12/27 11:32:47;;;;;;;3.58;1.40;;;;;;;;;;4994651;28;20126;-86
2020/12/27 11:35:14;;;;;;;2.40;1.02;;;;;;;;;;4996397;28;20133;-83
2020/12/27 11:37:40;;;;;;;1.70;1.00;;;;;;;;;;4991675;28;20123;-86
2020/12/27 11:40:09;;;;;;;4.65;1.70;;;;;;;;;;4987162;28;20051;-85
2020/12/27 11:42:36;;;;;;;2.10;1.40;;;;;;;;;;5014549;28;20046;-85
2020/12/27 11:45:03;;;;;;;3.33;1.60;;;;;;;;;;5010390;28;20049;-83
2020/12/27 11:47:30;;;;;;;4.03;1.77;;;;;;;;;;5013606;28;20030;-85
2020/12/27 11:49:56;;;;;;;3.42;1.42;;;;;;;;;;5013202;28;20049;-84
2020/12/27 11:52:25;;;;;;;2.63;1.40;;;;;;;;;;4997417;28;20082;-85
2020/12/27 11:54:52;;;;;;;3.40;1.40;;;;;;;;;;5000672;28;20664;-82
2020/12/27 11:57:17;;;;;;;3.95;1.60;;;;;;;;;;5019403;28;20057;-85
2020/12/27 11:59:44;;;;;;;2.42;1.23;;;;;;;;;;4987418;28;20486;-87
2020/12/27 12:02:10;;;;;;;2.95;1.40;;;;;;;;;;4982748;28;20050;-86
2020/12/27 12:04:36;;;;;;;2.95;1.40;;;;;;;;;;4995797;28;20053;-84
2020/12/27 12:07:03;;;;;;;4.35;1.63;;;;;;;;;;4996165;28;20046;-88
2020/12/27 12:09:30;;;;;;;2.83;1.60;;;;;;;;;;4991883;28;20045;-86
2020/12/27 12:12:09;;;;;;;3.13;1.52;;;;;;;;;;4995718;28;20545;-87
2020/12/27 12:14:35;;;;;;;3.83;2.35;;;;;;;;;;4994827;28;20042;-88
2020/12/27 12:17:01;;;;;;;5.88;2.90;;;;;;;;;;4977700;28;20528;-85
2020/12/27 12:19:30;;;;;;;4.65;2.42;;;;;;;;;;4945713;28;20046;-85
2020/12/27 12:21:57;;;;;;;2.20;1.45;;;;;;;;;;4983582;28;20042;-87
2020/12/27 12:24:24;;;;;;;2.40;1.23;;;;;;;;;;4966272;28;20112;-87
2020/12/27 12:26:50;;;;;;;3.47;1.20;;;;;;;;;;4999853;28;20035;-87
2020/12/27 12:29:16;;;;;;;2.80;1.23;;;;;;;;;;4981512;28;20050;-87
2020/12/27 12:31:42;;;;;;;3.72;1.30;;;;;;;;;;4946263;28;20043;-87
2020/12/27 12:34:09;;;;;;;2.30;1.40;;;;;;;;;;4989715;28;20030;-87
2020/12/27 12:36:36;;;;;;;3.00;1.30;;;;;;;;;;4997231;28;20037;-89
2020/12/27 12:39:03;;;;;;;3.78;1.20;;;;;;;;;;4975488;28;20113;-87
2020/12/27 12:41:30;;;;;;;8.57;1.60;;;;;;;;;;4980506;28;20065;-88
2020/12/27 12:43:58;;;;;;;3.35;1.40;;;;;;;;;;4980704;28;20041;-88
2020/12/27 12:46:25;;;;;;;3.63;1.45;;;;;;;;;;4997732;28;20038;-89
2020/12/27 12:48:53;;;;;;;2.78;1.30;;;;;;;;;;4997648;28;20038;-88
2020/12/27 12:51:20;;;;;;;2.85;1.50;;;;;;;;;;4981304;28;20058;-87
2020/12/27 12:53:49;;;;;;;3.45;1.40;;;;;;;;;;4980822;28;20039;-87
2020/12/27 12:56:16;;;;;;;2.70;1.30;;;;;;;;;;4980401;28;20054;-87
2020/12/27 12:58:42;;;;;;;5.25;1.08;;;;;;;;;;4986462;28;20045;-84
2020/12/27 13:04:18;;;;;;;3.38;1.30;;;;;;;;;;4895736;29;20052;-86
2020/12/27 13:06:45;;;;;;;3.17;1.50;;;;;;;;;;4903380;29;20054;-85
2020/12/27 13:09:12;;;;;;;3.60;1.30;;;;;;;;;;4903011;29;20537;-86
2020/12/27 13:11:39;;;;;;;3.58;1.20;;;;;;;;;;4908515;29;20052;-87
2020/12/27 13:14:06;;;;;;;3.60;1.20;;;;;;;;;;4920818;29;20050;-86
2020/12/27 13:16:32;;;;;;;3.15;1.27;;;;;;;;;;4920335;29;20103;-84
2020/12/27 13:18:58;;;;;;;5.78;1.67;;;;;;;;;;4917435;29;20055;-85
2020/12/27 13:21:25;;;;;;;4.20;1.00;;;;;;;;;;4918738;29;20122;-83
2020/12/27 13:23:51;;;;;;;2.35;1.00;;;;;;;;;;4887121;29;20148;-87
2020/12/27 13:26:18;;;;;;;2.85;1.42;;;;;;;;;;4915268;29;20044;-85
2020/12/27 13:28:45;;;;;;;5.45;2.30;;;;;;;;;;4901545;29;20107;-86
2020/12/27 13:31:23;;;;;;;4.13;1.70;;;;;;;;;;4916503;29;20327;-87
2020/12/27 13:34:25;;;;;;;7.57;2.38;;;;;;;;;;4886141;29;20216;-85
2020/12/27 13:37:14;;;;;;;2.80;1.50;;;;;;;;;;4879956;29;20036;-82
2020/12/27 13:39:42;;;;;;;4.05;1.85;;;;;;;;;;4908052;29;20040;-84
2020/12/27 13:42:09;;;;;;;4.25;2.00;;;;;;;;;;4902015;29;20053;-83
2020/12/27 13:44:39;;;;;;;9.05;3.95;;;;;;;;;;4902774;29;20414;-84
2020/12/27 13:47:06;;;;;;;3.40;2.00;;;;;;;;;;4903302;29;20112;-83
2020/12/27 13:49:40;;;;;;;2.17;1.33;;;;;;;;;;4903709;29;20048;-84
2020/12/27 13:52:17;;;;;;;3.97;1.70;;;;;;;;;;4903063;29;20189;-82
2020/12/27 13:54:44;;;;;;;2.85;1.40;;;;;;;;;;4886797;29;20083;-83
2020/12/27 13:57:10;;;;;;;2.72;1.33;;;;;;;;;;4918773;29;20223;-84
2020/12/27 13:59:36;;;;;;;2.65;1.52;;;;;;;;;;4901959;29;20070;-83
2020/12/27 14:02:02;;;;;;;4.05;1.80;;;;;;;;;;4920259;29;20591;-83
2020/12/27 14:04:28;;;;;;;3.63;1.50;;;;;;;;;;4948613;29;20052;-82
2020/12/27 14:07:02;;;;;;;4.53;2.00;;;;;;;;;;4919422;29;20036;-83
2020/12/27 14:09:38;;;;;;;6.78;2.25;;;;;;;;;;4920221;29;20055;-82
2020/12/27 14:12:04;;;;;;;5.18;2.38;;;;;;;;;;4903605;29;20046;-83
2020/12/27 14:14:31;;;;;;;6.97;2.25;;;;;;;;;;4888339;29;20292;-82
2020/12/27 14:16:57;;;;;;;7.50;2.03;;;;;;;;;;4918374;29;20063;-81
2020/12/27 14:19:35;;;;;;;6.75;2.50;;;;;;;;;;4908657;29;20444;-86
2020/12/27 14:22:20;;;;;;;6.88;2.22;;;;;;;;;;4905205;29;20107;-86
2020/12/27 14:24:52;;;;;;;6.93;1.88;;;;;;;;;;4910421;29;20052;-84
2020/12/27 14:27:20;;;;;;;5.38;2.33;;;;;;;;;;4909111;29;20079;-85
2020/12/27 14:29:48;;;;;;;4.65;2.30;;;;;;;;;;4904298;29;20043;-84
2020/12/27 14:32:35;;;;;;;5.95;2.20;;;;;;;;;;4933154;29;20036;-86
2020/12/27 14:35:16;;;;;;;5.15;2.38;;;;;;;;;;4935867;29;20051;-85
2020/12/27 14:37:46;;;;;;;11.68;2.20;;;;;;;;;;4919517;29;20044;-82
2020/12/27 14:40:12;;;;;;;5.45;2.28;;;;;;;;;;4916458;29;20048;-81
2020/12/27 14:42:38;;;;;;;5.13;2.28;;;;;;;;;;4914624;29;20590;-84
2020/12/27 14:45:11;;;;;;;5.03;2.40;;;;;;;;;;4920001;29;20053;-83
2020/12/27 14:47:48;;;;;;;5.82;2.63;;;;;;;;;;4935734;29;20040;-85
2020/12/27 14:50:46;;;;;;;7.63;2.50;;;;;;;;;;4904063;29;20078;-84
2020/12/27 14:53:12;;;;;;;6.68;2.20;;;;;;;;;;4919383;29;20115;-82
2020/12/27 14:55:38;;;;;;;6.05;2.17;;;;;;;;;;4903815;29;20518;-83
2020/12/27 14:58:05;;;;;;;7.13;2.60;;;;;;;;;;4918305;29;20107;-82
2020/12/27 15:00:47;;;;;;;5.32;2.40;;;;;;;;;;4917978;29;20043;-83
2020/12/27 15:03:19;;;;;;;6.40;2.35;;;;;;;;;;4915392;29;20304;-83
2020/12/27 15:05:52;;;;;;;7.88;2.50;;;;;;;;;;4914944;29;20048;-83
2020/12/27 15:08:48;;;;;;;8.43;2.63;;;;;;;;;;4915402;29;20063;-83